Terminal Aerodrome Forecast
Issued by NWS

Home | Current Version | Previous Version | Text Only | Print | Product List | Glossary On
Versions: 1 2 3 4 5 6 7 8 9 10 11 12
000
FTUS45 KABQ 072336
TAFSAF
TAF
KSAF 072336Z 0800/0824 33012KT P6SM SKC
     FM080200 01006KT P6SM FEW250
     FM081300 36012KT P6SM SKC
     FM082000 33008KT P6SM SKC=

USA.gov is the U.S. government's official web portal to all federal, state and local government web resources and services.